sensor_id;sensor_type;location;lat;lon;timestamp;temperature;humidity
25811;DHT22;13645;52.460;13.910;2022-11-15T00:00:56;2.90;99.90
25811;DHT22;13645;52.460;13.910;2022-11-15T00:03:24;2.80;99.90
25811;DHT22;13645;52.460;13.910;2022-11-15T00:05:52;2.60;99.90
25811;DHT22;13645;52.460;13.910;2022-11-15T00:08:19;2.60;99.90
25811;DHT22;13645;52.460;13.910;2022-11-15T00:11:00;2.50;99.90
25811;DHT22;13645;52.460;13.910;2022-11-15T00:13:27;2.50;99.90
25811;DHT22;13645;52.460;13.910;2022-11-15T00:15:57;2.50;99.90
25811;DHT22;13645;52.460;13.910;2022-11-15T00:18:24;2.50;99.90
25811;DHT22;13645;52.460;13.910;2022-11-15T00:20:51;2.50;99.90
25811;DHT22;13645;52.460;13.910;2022-11-15T00:23:18;2.60;99.90
25811;DHT22;13645;52.460;13.910;2022-11-15T00:25:45;2.60;99.90
25811;DHT22;13645;52.460;13.910;2022-11-15T00:28:12;2.60;99.90
25811;DHT22;13645;52.460;13.910;2022-11-15T00:30:38;2.70;99.90
25811;DHT22;13645;52.460;13.910;2022-11-15T00:33:06;2.70;99.90
25811;DHT22;13645;52.460;13.910;2022-11-15T00:35:33;2.70;99.90
25811;DHT22;13645;52.460;13.910;2022-11-15T00:38:01;2.70;99.90
25811;DHT22;13645;52.460;13.910;2022-11-15T00:40:28;2.70;99.90
25811;DHT22;13645;52.460;13.910;2022-11-15T00:42:55;2.70;99.90
25811;DHT22;13645;52.460;13.910;2022-11-15T00:45:23;2.80;99.90
25811;DHT22;13645;52.460;13.910;2022-11-15T00:47:50;2.70;99.90
25811;DHT22;13645;52.460;13.910;2022-11-15T00:50:17;2.70;99.90
25811;DHT22;13645;52.460;13.910;2022-11-15T00:52:44;2.70;99.90
25811;DHT22;13645;52.460;13.910;2022-11-15T00:55:15;2.80;99.90
25811;DHT22;13645;52.460;13.910;2022-11-15T00:57:42;2.80;99.90
25811;DHT22;13645;52.460;13.910;2022-11-15T01:00:10;2.80;99.90
25811;DHT22;13645;52.460;13.910;2022-11-15T01:02:37;2.80;99.90
25811;DHT22;13645;52.460;13.910;2022-11-15T01:05:04;2.80;99.90
25811;DHT22;13645;52.460;13.910;2022-11-15T01:07:31;2.80;99.90
25811;DHT22;13645;52.460;13.910;2022-11-15T01:09:57;2.80;99.90
25811;DHT22;13645;52.460;13.910;2022-11-15T01:12:24;2.80;99.90
25811;DHT22;13645;52.460;13.910;2022-11-15T01:14:51;2.80;99.90
25811;DHT22;13645;52.460;13.910;2022-11-15T01:17:18;2.80;99.90
25811;DHT22;13645;52.460;13.910;2022-11-15T01:19:45;2.70;99.90
25811;DHT22;13645;52.460;13.910;2022-11-15T01:22:11;2.70;99.90
25811;DHT22;13645;52.460;13.910;2022-11-15T01:24:38;2.60;99.90
25811;DHT22;13645;52.460;13.910;2022-11-15T01:34:58;2.50;99.90
25811;DHT22;13645;52.460;13.910;2022-11-15T01:37:25;2.60;99.90
25811;DHT22;13645;52.460;13.910;2022-11-15T01:39:52;2.50;99.90
25811;DHT22;13645;52.460;13.910;2022-11-15T01:42:18;2.60;99.90
25811;DHT22;13645;52.460;13.910;2022-11-15T01:44:47;2.60;99.90
25811;DHT22;13645;52.460;13.910;2022-11-15T01:52:36;2.80;99.90
25811;DHT22;13645;52.460;13.910;2022-11-15T01:55:23;3.00;99.90
25811;DHT22;13645;52.460;13.910;2022-11-15T01:57:54;3.00;99.90
25811;DHT22;13645;52.460;13.910;2022-11-15T02:00:22;3.00;99.90
25811;DHT22;13645;52.460;13.910;2022-11-15T02:02:49;3.10;99.90
25811;DHT22;13645;52.460;13.910;2022-11-15T02:05:16;3.10;99.90
25811;DHT22;13645;52.460;13.910;2022-11-15T02:07:44;3.10;99.90
25811;DHT22;13645;52.460;13.910;2022-11-15T02:10:19;3.10;99.90
25811;DHT22;13645;52.460;13.910;2022-11-15T02:12:47;3.10;99.90
25811;DHT22;13645;52.460;13.910;2022-11-15T02:15:14;3.10;99.90
25811;DHT22;13645;52.460;13.910;2022-11-15T02:18:03;3.00;99.90
25811;DHT22;13645;52.460;13.910;2022-11-15T02:21:22;3.00;99.90
25811;DHT22;13645;52.460;13.910;2022-11-15T02:30:04;3.00;99.90
25811;DHT22;13645;52.460;13.910;2022-11-15T02:32:40;3.00;99.90
25811;DHT22;13645;52.460;13.910;2022-11-15T02:37:58;2.90;99.90
25811;DHT22;13645;52.460;13.910;2022-11-15T02:43:10;2.90;99.90
25811;DHT22;13645;52.460;13.910;2022-11-15T02:49:18;2.90;99.90
25811;DHT22;13645;52.460;13.910;2022-11-15T02:51:46;2.90;99.90
25811;DHT22;13645;52.460;13.910;2022-11-15T02:54:25;2.90;99.90
25811;DHT22;13645;52.460;13.910;2022-11-15T02:56:54;2.80;99.90
25811;DHT22;13645;52.460;13.910;2022-11-15T03:02:19;2.80;99.90
25811;DHT22;13645;52.460;13.910;2022-11-15T03:05:15;2.90;99.90
25811;DHT22;13645;52.460;13.910;2022-11-15T03:13:56;2.80;99.90
25811;DHT22;13645;52.460;13.910;2022-11-15T03:16:36;2.70;99.90
25811;DHT22;13645;52.460;13.910;2022-11-15T03:21:37;2.70;99.90
25811;DHT22;13645;52.460;13.910;2022-11-15T03:24:08;2.70;99.90
25811;DHT22;13645;52.460;13.910;2022-11-15T03:26:36;2.70;99.90
25811;DHT22;13645;52.460;13.910;2022-11-15T03:29:12;2.70;99.90
25811;DHT22;13645;52.460;13.910;2022-11-15T03:31:45;2.70;99.90
25811;DHT22;13645;52.460;13.910;2022-11-15T03:34:27;2.70;99.90
25811;DHT22;13645;52.460;13.910;2022-11-15T03:36:56;2.70;99.90
25811;DHT22;13645;52.460;13.910;2022-11-15T03:39:23;2.70;99.90
25811;DHT22;13645;52.460;13.910;2022-11-15T03:44:42;2.70;99.90
25811;DHT22;13645;52.460;13.910;2022-11-15T03:47:14;2.70;99.90
25811;DHT22;13645;52.460;13.910;2022-11-15T03:49:46;2.70;99.90
25811;DHT22;13645;52.460;13.910;2022-11-15T03:52:19;2.70;99.90
25811;DHT22;13645;52.460;13.910;2022-11-15T03:54:55;2.80;99.90
25811;DHT22;13645;52.460;13.910;2022-11-15T03:57:22;2.80;99.90
25811;DHT22;13645;52.460;13.910;2022-11-15T03:59:48;2.80;99.90
25811;DHT22;13645;52.460;13.910;2022-11-15T04:02:15;2.80;99.90
25811;DHT22;13645;52.460;13.910;2022-11-15T04:04:42;2.80;99.90
25811;DHT22;13645;52.460;13.910;2022-11-15T04:07:08;2.80;99.90
25811;DHT22;13645;52.460;13.910;2022-11-15T04:09:35;2.70;99.90
25811;DHT22;13645;52.460;13.910;2022-11-15T04:12:25;2.70;99.90
25811;DHT22;13645;52.460;13.910;2022-11-15T04:17:42;2.70;99.90
25811;DHT22;13645;52.460;13.910;2022-11-15T04:22:58;2.70;99.90
25811;DHT22;13645;52.460;13.910;2022-11-15T04:25:45;2.70;99.90
25811;DHT22;13645;52.460;13.910;2022-11-15T04:28:12;2.70;99.90
25811;DHT22;13645;52.460;13.910;2022-11-15T04:30:39;2.70;99.90
25811;DHT22;13645;52.460;13.910;2022-11-15T04:33:06;2.60;99.90
25811;DHT22;13645;52.460;13.910;2022-11-15T04:35:33;2.60;99.90
25811;DHT22;13645;52.460;13.910;2022-11-15T04:37:59;2.50;99.90
25811;DHT22;13645;52.460;13.910;2022-11-15T04:40:26;2.50;99.90
25811;DHT22;13645;52.460;13.910;2022-11-15T04:42:53;2.50;99.90
25811;DHT22;13645;52.460;13.910;2022-11-15T04:45:27;2.40;99.90
25811;DHT22;13645;52.460;13.910;2022-11-15T04:47:54;2.40;99.90
25811;DHT22;13645;52.460;13.910;2022-11-15T04:50:20;2.40;99.90
25811;DHT22;13645;52.460;13.910;2022-11-15T04:52:52;2.40;99.90
25811;DHT22;13645;52.460;13.910;2022-11-15T04:55:20;2.30;99.90
25811;DHT22;13645;52.460;13.910;2022-11-15T04:57:47;2.30;99.90
25811;DHT22;13645;52.460;13.910;2022-11-15T05:00:15;2.30;99.90
25811;DHT22;13645;52.460;13.910;2022-11-15T05:02:42;2.30;99.90
25811;DHT22;13645;52.460;13.910;2022-11-15T05:05:28;2.20;99.90
25811;DHT22;13645;52.460;13.910;2022-11-15T05:07:54;2.20;99.90
25811;DHT22;13645;52.460;13.910;2022-11-15T05:10:21;2.20;99.90
25811;DHT22;13645;52.460;13.910;2022-11-15T05:12:48;2.20;99.90
25811;DHT22;13645;52.460;13.910;2022-11-15T05:15:15;2.20;99.90
25811;DHT22;13645;52.460;13.910;2022-11-15T05:17:42;2.20;99.90
25811;DHT22;13645;52.460;13.910;2022-11-15T05:20:09;2.20;99.90
25811;DHT22;13645;52.460;13.910;2022-11-15T05:22:36;2.20;99.90
25811;DHT22;13645;52.460;13.910;2022-11-15T05:25:03;2.20;99.90
25811;DHT22;13645;52.460;13.910;2022-11-15T05:27:30;2.10;99.90
25811;DHT22;13645;52.460;13.910;2022-11-15T05:29:56;2.10;99.90
25811;DHT22;13645;52.460;13.910;2022-11-15T05:32:23;2.10;99.90
25811;DHT22;13645;52.460;13.910;2022-11-15T05:34:51;2.00;99.90
25811;DHT22;13645;52.460;13.910;2022-11-15T05:37:18;2.00;99.90
25811;DHT22;13645;52.460;13.910;2022-11-15T05:39:44;2.00;99.90
25811;DHT22;13645;52.460;13.910;2022-11-15T05:42:13;2.00;99.90
25811;DHT22;13645;52.460;13.910;2022-11-15T05:44:43;2.00;99.90
25811;DHT22;13645;52.460;13.910;2022-11-15T05:47:15;2.00;99.90
25811;DHT22;13645;52.460;13.910;2022-11-15T05:49:44;2.00;99.90
25811;DHT22;13645;52.460;13.910;2022-11-15T05:52:13;2.00;99.90
25811;DHT22;13645;52.460;13.910;2022-11-15T05:54:41;1.90;99.90
25811;DHT22;13645;52.460;13.910;2022-11-15T05:57:08;1.90;99.90
25811;DHT22;13645;52.460;13.910;2022-11-15T05:59:35;1.90;99.90
25811;DHT22;13645;52.460;13.910;2022-11-15T06:02:02;1.90;99.90
25811;DHT22;13645;52.460;13.910;2022-11-15T06:04:29;1.90;99.90
25811;DHT22;13645;52.460;13.910;2022-11-15T06:06:58;1.80;99.90
25811;DHT22;13645;52.460;13.910;2022-11-15T06:09:25;1.80;99.90
25811;DHT22;13645;52.460;13.910;2022-11-15T06:11:52;1.80;99.90
25811;DHT22;13645;52.460;13.910;2022-11-15T06:14:18;1.80;99.90
25811;DHT22;13645;52.460;13.910;2022-11-15T06:16:45;1.80;99.90
25811;DHT22;13645;52.460;13.910;2022-11-15T06:19:12;1.80;99.90
25811;DHT22;13645;52.460;13.910;2022-11-15T06:21:38;1.80;99.90
25811;DHT22;13645;52.460;13.910;2022-11-15T06:24:05;1.90;99.90
25811;DHT22;13645;52.460;13.910;2022-11-15T06:26:32;1.80;99.90
25811;DHT22;13645;52.460;13.910;2022-11-15T06:28:59;1.90;99.90
25811;DHT22;13645;52.460;13.910;2022-11-15T06:31:26;1.90;99.90
25811;DHT22;13645;52.460;13.910;2022-11-15T06:33:52;1.90;99.90
25811;DHT22;13645;52.460;13.910;2022-11-15T06:36:19;1.90;99.90
25811;DHT22;13645;52.460;13.910;2022-11-15T06:38:47;2.00;99.90
25811;DHT22;13645;52.460;13.910;2022-11-15T06:41:14;2.00;99.90
25811;DHT22;13645;52.460;13.910;2022-11-15T06:43:41;2.00;99.90
25811;DHT22;13645;52.460;13.910;2022-11-15T06:46:08;2.00;99.90
25811;DHT22;13645;52.460;13.910;2022-11-15T06:48:35;1.90;99.90
25811;DHT22;13645;52.460;13.910;2022-11-15T06:51:03;1.90;99.90
25811;DHT22;13645;52.460;13.910;2022-11-15T06:53:31;1.90;99.90
25811;DHT22;13645;52.460;13.910;2022-11-15T06:56:00;1.90;99.90
25811;DHT22;13645;52.460;13.910;2022-11-15T06:58:27;1.80;99.90
25811;DHT22;13645;52.460;13.910;2022-11-15T07:00:57;1.90;99.90
25811;DHT22;13645;52.460;13.910;2022-11-15T07:03:24;1.80;99.90
25811;DHT22;13645;52.460;13.910;2022-11-15T07:05:52;1.80;99.90
25811;DHT22;13645;52.460;13.910;2022-11-15T07:08:20;1.80;99.90
25811;DHT22;13645;52.460;13.910;2022-11-15T07:10:47;1.90;99.90
25811;DHT22;13645;52.460;13.910;2022-11-15T07:13:14;1.90;99.90
25811;DHT22;13645;52.460;13.910;2022-11-15T07:15:41;1.90;99.90
25811;DHT22;13645;52.460;13.910;2022-11-15T07:18:08;1.90;99.90
25811;DHT22;13645;52.460;13.910;2022-11-15T07:20:34;1.90;99.90
25811;DHT22;13645;52.460;13.910;2022-11-15T07:23:05;1.90;99.90
25811;DHT22;13645;52.460;13.910;2022-11-15T07:25:32;2.00;99.90
25811;DHT22;13645;52.460;13.910;2022-11-15T07:27:59;2.00;99.90
25811;DHT22;13645;52.460;13.910;2022-11-15T07:30:27;2.00;99.90
25811;DHT22;13645;52.460;13.910;2022-11-15T07:32:58;2.10;99.90
25811;DHT22;13645;52.460;13.910;2022-11-15T07:35:27;2.10;99.90
25811;DHT22;13645;52.460;13.910;2022-11-15T07:37:58;2.20;99.90
25811;DHT22;13645;52.460;13.910;2022-11-15T07:40:29;2.20;99.90
25811;DHT22;13645;52.460;13.910;2022-11-15T07:43:00;2.30;99.90
25811;DHT22;13645;52.460;13.910;2022-11-15T07:45:27;2.40;99.90
25811;DHT22;13645;52.460;13.910;2022-11-15T07:47:54;2.40;99.90
25811;DHT22;13645;52.460;13.910;2022-11-15T07:50:23;2.60;99.90
25811;DHT22;13645;52.460;13.910;2022-11-15T07:52:57;2.60;99.90
25811;DHT22;13645;52.460;13.910;2022-11-15T07:55:26;2.70;99.90
25811;DHT22;13645;52.460;13.910;2022-11-15T07:58:03;2.80;99.90
25811;DHT22;13645;52.460;13.910;2022-11-15T08:00:31;2.90;99.90
25811;DHT22;13645;52.460;13.910;2022-11-15T08:03:03;2.90;99.90
25811;DHT22;13645;52.460;13.910;2022-11-15T08:05:29;3.00;99.90
25811;DHT22;13645;52.460;13.910;2022-11-15T08:07:56;3.10;99.90
25811;DHT22;13645;52.460;13.910;2022-11-15T08:10:24;3.10;99.90
25811;DHT22;13645;52.460;13.910;2022-11-15T08:13:01;3.20;99.90
25811;DHT22;13645;52.460;13.910;2022-11-15T08:15:29;3.30;99.90
25811;DHT22;13645;52.460;13.910;2022-11-15T08:17:57;3.40;99.90
25811;DHT22;13645;52.460;13.910;2022-11-15T08:20:26;3.50;99.90
25811;DHT22;13645;52.460;13.910;2022-11-15T08:22:53;3.50;99.90
25811;DHT22;13645;52.460;13.910;2022-11-15T08:25:19;3.60;99.90
25811;DHT22;13645;52.460;13.910;2022-11-15T08:27:46;3.70;99.90
25811;DHT22;13645;52.460;13.910;2022-11-15T08:30:13;3.80;99.90
25811;DHT22;13645;52.460;13.910;2022-11-15T08:32:42;3.90;99.90
25811;DHT22;13645;52.460;13.910;2022-11-15T08:35:09;3.90;99.90
25811;DHT22;13645;52.460;13.910;2022-11-15T08:37:36;4.00;99.90
25811;DHT22;13645;52.460;13.910;2022-11-15T08:40:04;4.10;99.90
25811;DHT22;13645;52.460;13.910;2022-11-15T08:42:31;4.20;99.90
25811;DHT22;13645;52.460;13.910;2022-11-15T08:44:58;4.30;99.90
25811;DHT22;13645;52.460;13.910;2022-11-15T08:47:24;4.40;99.90
25811;DHT22;13645;52.460;13.910;2022-11-15T08:49:51;4.50;99.90
25811;DHT22;13645;52.460;13.910;2022-11-15T08:52:18;4.50;99.90
25811;DHT22;13645;52.460;13.910;2022-11-15T08:54:45;4.60;99.90
25811;DHT22;13645;52.460;13.910;2022-11-15T08:57:12;4.70;99.90
25811;DHT22;13645;52.460;13.910;2022-11-15T08:59:38;4.80;99.90
25811;DHT22;13645;52.460;13.910;2022-11-15T09:02:05;4.90;99.90
25811;DHT22;13645;52.460;13.910;2022-11-15T09:04:33;5.00;99.90
25811;DHT22;13645;52.460;13.910;2022-11-15T09:06:59;5.00;99.90
25811;DHT22;13645;52.460;13.910;2022-11-15T09:09:26;5.10;99.90
25811;DHT22;13645;52.460;13.910;2022-11-15T09:11:53;5.30;99.90
25811;DHT22;13645;52.460;13.910;2022-11-15T09:14:26;5.40;99.90
25811;DHT22;13645;52.460;13.910;2022-11-15T09:16:53;5.50;99.90
25811;DHT22;13645;52.460;13.910;2022-11-15T09:19:20;5.60;99.90
25811;DHT22;13645;52.460;13.910;2022-11-15T09:21:46;5.80;99.90
25811;DHT22;13645;52.460;13.910;2022-11-15T09:24:13;5.90;99.90
25811;DHT22;13645;52.460;13.910;2022-11-15T09:26:40;6.00;99.90
25811;DHT22;13645;52.460;13.910;2022-11-15T09:29:07;6.10;99.90
25811;DHT22;13645;52.460;13.910;2022-11-15T09:31:34;6.20;99.90
25811;DHT22;13645;52.460;13.910;2022-11-15T09:34:00;6.40;99.90
25811;DHT22;13645;52.460;13.910;2022-11-15T09:36:27;6.50;99.90
25811;DHT22;13645;52.460;13.910;2022-11-15T09:38:54;6.70;99.90
25811;DHT22;13645;52.460;13.910;2022-11-15T09:41:36;7.10;99.90
25811;DHT22;13645;52.460;13.910;2022-11-15T09:44:19;7.40;99.90
25811;DHT22;13645;52.460;13.910;2022-11-15T09:49:37;7.70;99.90
25811;DHT22;13645;52.460;13.910;2022-11-15T09:52:04;7.80;99.90
25811;DHT22;13645;52.460;13.910;2022-11-15T09:54:34;7.90;99.90
25811;DHT22;13645;52.460;13.910;2022-11-15T09:57:32;8.00;99.90
25811;DHT22;13645;52.460;13.910;2022-11-15T10:00:22;8.10;99.90
25811;DHT22;13645;52.460;13.910;2022-11-15T10:03:14;8.20;99.90
25811;DHT22;13645;52.460;13.910;2022-11-15T10:05:57;8.40;99.90
25811;DHT22;13645;52.460;13.910;2022-11-15T10:11:07;8.70;99.90
25811;DHT22;13645;52.460;13.910;2022-11-15T10:13:59;8.80;99.90
25811;DHT22;13645;52.460;13.910;2022-11-15T10:24:42;9.00;99.90
25811;DHT22;13645;52.460;13.910;2022-11-15T10:27:15;9.20;99.90
25811;DHT22;13645;52.460;13.910;2022-11-15T10:29:45;9.30;99.90
25811;DHT22;13645;52.460;13.910;2022-11-15T10:32:14;9.50;99.90
25811;DHT22;13645;52.460;13.910;2022-11-15T10:34:40;9.60;99.90
25811;DHT22;13645;52.460;13.910;2022-11-15T10:37:08;9.80;99.90
25811;DHT22;13645;52.460;13.910;2022-11-15T10:39:34;9.80;99.90
25811;DHT22;13645;52.460;13.910;2022-11-15T10:42:18;10.00;99.90
25811;DHT22;13645;52.460;13.910;2022-11-15T10:44:51;10.20;99.90
25811;DHT22;13645;52.460;13.910;2022-11-15T10:47:27;10.30;99.90
25811;DHT22;13645;52.460;13.910;2022-11-15T10:49:56;10.40;99.90
25811;DHT22;13645;52.460;13.910;2022-11-15T10:52:23;10.50;99.90
25811;DHT22;13645;52.460;13.910;2022-11-15T10:57:39;10.80;99.90
25811;DHT22;13645;52.460;13.910;2022-11-15T11:00:37;11.00;99.90
25811;DHT22;13645;52.460;13.910;2022-11-15T11:03:44;11.10;99.90
25811;DHT22;13645;52.460;13.910;2022-11-15T11:06:16;11.30;99.90
25811;DHT22;13645;52.460;13.910;2022-11-15T11:11:43;11.80;99.90
25811;DHT22;13645;52.460;13.910;2022-11-15T11:14:21;12.30;99.90
25811;DHT22;13645;52.460;13.910;2022-11-15T11:16:54;12.70;99.90
25811;DHT22;13645;52.460;13.910;2022-11-15T11:23:03;13.40;99.90
25811;DHT22;13645;52.460;13.910;2022-11-15T11:33:32;14.60;99.90
25811;DHT22;13645;52.460;13.910;2022-11-15T11:36:26;14.80;99.90
25811;DHT22;13645;52.460;13.910;2022-11-15T11:45:15;15.30;99.90
25811;DHT22;13645;52.460;13.910;2022-11-15T11:48:01;15.40;86.50
25811;DHT22;13645;52.460;13.910;2022-11-15T11:50:31;15.60;74.00
25811;DHT22;13645;52.460;13.910;2022-11-15T11:55:54;15.90;64.30
25811;DHT22;13645;52.460;13.910;2022-11-15T11:58:38;16.00;65.10
25811;DHT22;13645;52.460;13.910;2022-11-15T12:04:11;16.20;24.20
25811;DHT22;13645;52.460;13.910;2022-11-15T12:06:56;16.40;22.00
25811;DHT22;13645;52.460;13.910;2022-11-15T12:17:37;16.70;1.00
25811;DHT22;13645;52.460;13.910;2022-11-15T12:20:15;16.80;1.00
25811;DHT22;13645;52.460;13.910;2022-11-15T12:31:00;17.00;1.00
25811;DHT22;13645;52.460;13.910;2022-11-15T12:33:34;17.00;1.00
25811;DHT22;13645;52.460;13.910;2022-11-15T12:36:04;17.00;1.00
25811;DHT22;13645;52.460;13.910;2022-11-15T12:41:21;17.20;1.00
25811;DHT22;13645;52.460;13.910;2022-11-15T12:43:49;17.20;1.00
25811;DHT22;13645;52.460;13.910;2022-11-15T12:46:24;17.20;1.00
25811;DHT22;13645;52.460;13.910;2022-11-15T12:59:49;17.30;1.00
25811;DHT22;13645;52.460;13.910;2022-11-15T13:04:51;17.30;1.00
25811;DHT22;13645;52.460;13.910;2022-11-15T13:17:46;17.30;1.00
25811;DHT22;13645;52.460;13.910;2022-11-15T13:23:11;17.30;1.00
25811;DHT22;13645;52.460;13.910;2022-11-15T13:30:59;17.10;1.00
25811;DHT22;13645;52.460;13.910;2022-11-15T13:33:34;16.90;1.00
25811;DHT22;13645;52.460;13.910;2022-11-15T13:38:33;16.80;1.00
25811;DHT22;13645;52.460;13.910;2022-11-15T13:41:14;16.70;1.00
25811;DHT22;13645;52.460;13.910;2022-11-15T13:43:43;16.40;1.00
25811;DHT22;13645;52.460;13.910;2022-11-15T13:46:17;16.30;1.00
25811;DHT22;13645;52.460;13.910;2022-11-15T13:48:46;16.20;1.00
25811;DHT22;13645;52.460;13.910;2022-11-15T13:51:36;16.10;9.70
25811;DHT22;13645;52.460;13.910;2022-11-15T13:54:29;15.90;29.00
25811;DHT22;13645;52.460;13.910;2022-11-15T13:56:57;15.80;29.50
25811;DHT22;13645;52.460;13.910;2022-11-15T13:59:36;15.70;38.50
25811;DHT22;13645;52.460;13.910;2022-11-15T14:02:12;15.60;45.20
25811;DHT22;13645;52.460;13.910;2022-11-15T14:04:47;15.50;55.10
25811;DHT22;13645;52.460;13.910;2022-11-15T14:07:18;15.50;54.60
25811;DHT22;13645;52.460;13.910;2022-11-15T14:09:46;15.40;57.50
25811;DHT22;13645;52.460;13.910;2022-11-15T14:12:29;15.50;58.50
25811;DHT22;13645;52.460;13.910;2022-11-15T14:14:57;15.50;61.70
25811;DHT22;13645;52.460;13.910;2022-11-15T14:19:55;15.00;82.40
25811;DHT22;13645;52.460;13.910;2022-11-15T14:22:29;14.90;94.10
25811;DHT22;13645;52.460;13.910;2022-11-15T14:25:17;14.70;99.90
25811;DHT22;13645;52.460;13.910;2022-11-15T14:30:42;14.20;99.90
25811;DHT22;13645;52.460;13.910;2022-11-15T14:33:31;14.40;99.90
25811;DHT22;13645;52.460;13.910;2022-11-15T14:36:20;14.30;99.90
25811;DHT22;13645;52.460;13.910;2022-11-15T14:38:47;14.10;99.90
25811;DHT22;13645;52.460;13.910;2022-11-15T14:43:46;13.60;99.90
25811;DHT22;13645;52.460;13.910;2022-11-15T14:46:12;13.40;99.90
25811;DHT22;13645;52.460;13.910;2022-11-15T14:48:39;13.10;99.90
25811;DHT22;13645;52.460;13.910;2022-11-15T14:51:18;12.80;99.90
25811;DHT22;13645;52.460;13.910;2022-11-15T14:53:46;12.50;99.90
25811;DHT22;13645;52.460;13.910;2022-11-15T14:56:14;12.10;99.90
25811;DHT22;13645;52.460;13.910;2022-11-15T14:58:41;11.90;99.90
25811;DHT22;13645;52.460;13.910;2022-11-15T15:01:12;11.60;99.90
25811;DHT22;13645;52.460;13.910;2022-11-15T15:03:39;11.30;99.90
25811;DHT22;13645;52.460;13.910;2022-11-15T15:06:06;11.10;99.90
25811;DHT22;13645;52.460;13.910;2022-11-15T15:08:42;10.90;99.90
25811;DHT22;13645;52.460;13.910;2022-11-15T15:11:29;10.70;99.90
25811;DHT22;13645;52.460;13.910;2022-11-15T15:13:56;10.40;99.90
25811;DHT22;13645;52.460;13.910;2022-11-15T15:16:24;10.30;99.90
25811;DHT22;13645;52.460;13.910;2022-11-15T15:18:52;10.10;99.90
25811;DHT22;13645;52.460;13.910;2022-11-15T15:21:28;9.90;99.90
25811;DHT22;13645;52.460;13.910;2022-11-15T15:24:03;9.80;99.90
25811;DHT22;13645;52.460;13.910;2022-11-15T15:26:29;9.60;99.90
25811;DHT22;13645;52.460;13.910;2022-11-15T15:29:00;9.50;99.90
25811;DHT22;13645;52.460;13.910;2022-11-15T15:31:26;9.30;99.90
25811;DHT22;13645;52.460;13.910;2022-11-15T15:33:53;9.20;99.90
25811;DHT22;13645;52.460;13.910;2022-11-15T15:36:20;9.10;99.90
25811;DHT22;13645;52.460;13.910;2022-11-15T15:38:46;9.10;99.90
25811;DHT22;13645;52.460;13.910;2022-11-15T15:41:15;9.00;99.90
25811;DHT22;13645;52.460;13.910;2022-11-15T15:43:42;8.90;99.90
25811;DHT22;13645;52.460;13.910;2022-11-15T15:46:14;8.80;99.90
25811;DHT22;13645;52.460;13.910;2022-11-15T15:48:41;8.70;99.90
25811;DHT22;13645;52.460;13.910;2022-11-15T15:51:08;8.70;99.90
25811;DHT22;13645;52.460;13.910;2022-11-15T15:53:45;8.60;99.90
25811;DHT22;13645;52.460;13.910;2022-11-15T15:56:12;8.60;99.90
25811;DHT22;13645;52.460;13.910;2022-11-15T15:58:39;8.50;99.90
25811;DHT22;13645;52.460;13.910;2022-11-15T16:01:05;8.40;99.90
25811;DHT22;13645;52.460;13.910;2022-11-15T16:03:32;8.40;99.90
25811;DHT22;13645;52.460;13.910;2022-11-15T16:05:59;8.30;99.90
25811;DHT22;13645;52.460;13.910;2022-11-15T16:08:26;8.20;99.90
25811;DHT22;13645;52.460;13.910;2022-11-15T16:11:03;8.20;99.90
25811;DHT22;13645;52.460;13.910;2022-11-15T16:13:32;8.10;99.90
25811;DHT22;13645;52.460;13.910;2022-11-15T16:16:00;8.10;99.90
25811;DHT22;13645;52.460;13.910;2022-11-15T16:18:26;8.10;99.90
25811;DHT22;13645;52.460;13.910;2022-11-15T16:20:53;8.00;99.90
25811;DHT22;13645;52.460;13.910;2022-11-15T16:23:23;8.00;99.90
25811;DHT22;13645;52.460;13.910;2022-11-15T16:25:55;8.00;99.90
25811;DHT22;13645;52.460;13.910;2022-11-15T16:28:26;7.90;99.90
25811;DHT22;13645;52.460;13.910;2022-11-15T16:31:19;7.80;99.90
25811;DHT22;13645;52.460;13.910;2022-11-15T16:33:49;7.80;99.90
25811;DHT22;13645;52.460;13.910;2022-11-15T16:36:23;7.60;99.90
25811;DHT22;13645;52.460;13.910;2022-11-15T16:38:56;7.60;99.90
25811;DHT22;13645;52.460;13.910;2022-11-15T16:41:23;7.50;99.90
25811;DHT22;13645;52.460;13.910;2022-11-15T16:43:49;7.40;99.90
25811;DHT22;13645;52.460;13.910;2022-11-15T16:46:20;7.30;99.90
25811;DHT22;13645;52.460;13.910;2022-11-15T16:48:47;7.30;99.90
25811;DHT22;13645;52.460;13.910;2022-11-15T16:51:14;7.20;99.90
25811;DHT22;13645;52.460;13.910;2022-11-15T16:53:42;7.20;99.90
25811;DHT22;13645;52.460;13.910;2022-11-15T16:56:19;7.20;99.90
25811;DHT22;13645;52.460;13.910;2022-11-15T16:58:48;7.10;99.90
25811;DHT22;13645;52.460;13.910;2022-11-15T17:01:17;7.00;99.90
25811;DHT22;13645;52.460;13.910;2022-11-15T17:03:45;7.00;99.90
25811;DHT22;13645;52.460;13.910;2022-11-15T17:06:12;7.00;99.90
25811;DHT22;13645;52.460;13.910;2022-11-15T17:08:40;6.90;99.90
25811;DHT22;13645;52.460;13.910;2022-11-15T17:11:08;6.90;99.90
25811;DHT22;13645;52.460;13.910;2022-11-15T17:13:35;6.90;99.90
25811;DHT22;13645;52.460;13.910;2022-11-15T17:16:09;6.80;99.90
25811;DHT22;13645;52.460;13.910;2022-11-15T17:18:36;6.80;99.90
25811;DHT22;13645;52.460;13.910;2022-11-15T17:21:09;6.70;99.90
25811;DHT22;13645;52.460;13.910;2022-11-15T17:23:37;6.70;99.90
25811;DHT22;13645;52.460;13.910;2022-11-15T17:26:05;6.70;99.90
25811;DHT22;13645;52.460;13.910;2022-11-15T17:28:55;6.70;99.90
25811;DHT22;13645;52.460;13.910;2022-11-15T17:31:22;6.60;99.90
25811;DHT22;13645;52.460;13.910;2022-11-15T17:33:49;6.50;99.90
25811;DHT22;13645;52.460;13.910;2022-11-15T17:36:16;6.40;99.90
25811;DHT22;13645;52.460;13.910;2022-11-15T17:38:43;6.40;99.90
25811;DHT22;13645;52.460;13.910;2022-11-15T17:41:12;6.30;99.90
25811;DHT22;13645;52.460;13.910;2022-11-15T17:43:40;6.30;99.90
25811;DHT22;13645;52.460;13.910;2022-11-15T17:46:12;6.30;99.90
25811;DHT22;13645;52.460;13.910;2022-11-15T17:48:40;6.30;99.90
25811;DHT22;13645;52.460;13.910;2022-11-15T17:51:10;6.30;99.90
25811;DHT22;13645;52.460;13.910;2022-11-15T17:53:39;6.40;99.90
25811;DHT22;13645;52.460;13.910;2022-11-15T17:56:11;6.40;99.90
25811;DHT22;13645;52.460;13.910;2022-11-15T17:58:39;6.50;99.90
25811;DHT22;13645;52.460;13.910;2022-11-15T18:03:36;6.60;99.90
25811;DHT22;13645;52.460;13.910;2022-11-15T18:06:07;6.60;99.90
25811;DHT22;13645;52.460;13.910;2022-11-15T18:08:35;6.70;99.90
25811;DHT22;13645;52.460;13.910;2022-11-15T18:13:36;6.70;99.90
25811;DHT22;13645;52.460;13.910;2022-11-15T18:16:05;6.70;99.90
25811;DHT22;13645;52.460;13.910;2022-11-15T18:18:33;6.70;99.90
25811;DHT22;13645;52.460;13.910;2022-11-15T18:21:05;6.70;99.90
25811;DHT22;13645;52.460;13.910;2022-11-15T18:23:33;6.70;99.90
25811;DHT22;13645;52.460;13.910;2022-11-15T18:26:02;6.70;99.90
25811;DHT22;13645;52.460;13.910;2022-11-15T18:28:33;6.70;99.90